Terminal Aerodrome Forecast
Issued by NWS

Home | Current Version | Previous Version | Text Only | Print | Product List | Glossary On
Versions: 1 2 3 4 5 6 7 8 9 10 11 12 13 14 15 16 17
359
FTAK31 PAJN 242340
TAFAJN
TAF
PAJN 242340Z 2500/2524 VRB04KT P6SM SCT035 OVC050
     FM250400 07004KT P6SM FEW025 SCT035 OVC050
     FM251200 09003KT P6SM VCSH SCT025 OVC040
     FM252100 12008KT P6SM VCSH SCT025 OVC040=

USA.gov is the U.S. government's official web portal to all federal, state and local government web resources and services.